Time;durP1;ratioP1;P1;durP2;ratioP2;P2;SDS_P1;SDS_P2;PMS_P1;PMS_P2;Temp;Humidity;BMP_temperature;BMP_pressure;BME280_temperature;BME280_humidity;BME280_pressure;Samples;Min_cycle;Max_cycle;Signal;HPM_P1;HPM_P2
2023/07/22 00:02:13;;;;;;;9.60;5.03;;;;;;;26.24;72.59;99631.03;5105484;27;20031;-64
2023/07/22 00:04:38;;;;;;;9.45;5.60;;;;;;;26.17;73.14;99641.34;5122883;27;20050;-64
2023/07/22 00:07:04;;;;;;;7.03;5.10;;;;;;;26.30;72.80;99641.66;5121060;27;20211;-64
2023/07/22 00:09:33;;;;;;;6.80;4.93;;;;;;;26.06;72.93;99637.78;5125912;27;20055;-64
2023/07/22 00:11:59;;;;;;;7.57;5.30;;;;;;;26.05;73.31;99641.56;5123828;27;20047;-64
2023/07/22 00:14:24;;;;;;;7.45;5.20;;;;;;;25.90;74.49;99636.06;5121032;27;20110;-64
2023/07/22 00:16:49;;;;;;;6.78;5.35;;;;;;;25.73;75.87;99633.53;5122373;27;20036;-64
2023/07/22 00:19:15;;;;;;;7.13;4.78;;;;;;;25.60;76.50;99636.69;5125602;27;20031;-64
2023/07/22 00:21:40;;;;;;;9.07;6.22;;;;;;;25.63;76.71;99633.47;5121779;27;20032;-64
2023/07/22 00:24:06;;;;;;;8.65;4.57;;;;;;;25.59;76.65;99626.94;5122362;27;20039;-64
2023/07/22 00:26:31;;;;;;;5.35;4.55;;;;;;;25.71;76.24;99641.94;5124178;27;20294;-64
2023/07/22 00:28:56;;;;;;;7.10;4.45;;;;;;;25.70;76.72;99647.63;5124343;27;20035;-64
2023/07/22 00:31:22;;;;;;;8.40;4.22;;;;;;;25.76;76.49;99652.81;5129976;27;20182;-64
2023/07/22 00:33:47;;;;;;;6.90;4.90;;;;;;;25.69;76.68;99654.13;5120650;27;20372;-64
2023/07/22 00:36:13;;;;;;;7.28;5.13;;;;;;;25.70;76.77;99653.88;5123152;27;20027;-64
2023/07/22 00:38:39;;;;;;;7.88;4.40;;;;;;;25.78;76.22;99647.13;5120952;27;20032;-64
2023/07/22 00:41:05;;;;;;;5.72;4.70;;;;;;;25.96;75.45;99649.38;5123590;27;20047;-64
2023/07/22 00:43:31;;;;;;;7.57;4.53;;;;;;;26.02;75.20;99642.91;5121692;27;20038;-64
2023/07/22 00:45:57;;;;;;;6.28;4.78;;;;;;;26.17;74.57;99649.47;5119658;27;20042;-63
2023/07/22 00:48:23;;;;;;;6.85;4.90;;;;;;;26.24;74.35;99653.56;5123728;27;20345;-64
2023/07/22 00:50:48;;;;;;;5.57;4.38;;;;;;;26.39;73.67;99655.53;5122398;27;20039;-64
2023/07/22 00:53:14;;;;;;;5.70;5.00;;;;;;;26.41;73.68;99653.38;5122562;27;20035;-63
2023/07/22 00:55:42;;;;;;;8.30;5.13;;;;;;;26.39;73.40;99656.38;5121601;27;20043;-64
2023/07/22 00:58:07;;;;;;;7.28;4.78;;;;;;;26.52;73.29;99646.06;5123825;27;20340;-64
2023/07/22 01:00:33;;;;;;;6.50;5.07;;;;;;;26.63;72.33;99643.09;5121212;28;20046;-64
2023/07/22 01:02:59;;;;;;;6.30;5.00;;;;;;;26.74;71.92;99649.34;5119934;27;20040;-64
2023/07/22 01:05:26;;;;;;;8.60;5.03;;;;;;;26.84;71.40;99662.94;5123898;27;20050;-64
2023/07/22 01:07:52;;;;;;;6.30;4.57;;;;;;;26.83;71.00;99663.22;5119234;27;20058;-64
2023/07/22 01:10:18;;;;;;;7.40;4.90;;;;;;;26.92;70.82;99670.56;5123050;27;20031;-64
2023/07/22 01:12:44;;;;;;;7.97;5.72;;;;;;;27.00;70.82;99663.81;5122592;27;20042;-64
2023/07/22 01:15:10;;;;;;;8.07;5.43;;;;;;;26.88;71.16;99669.47;5120610;28;20035;-64
2023/07/22 01:17:38;;;;;;;6.43;5.65;;;;;;;26.83;71.67;99672.19;5123178;28;20111;-64
2023/07/22 01:20:05;;;;;;;8.18;5.53;;;;;;;26.75;71.99;99672.72;5120471;28;20038;-64
2023/07/22 01:22:32;;;;;;;7.10;5.32;;;;;;;26.80;71.58;99672.72;5122478;28;20042;-65
2023/07/22 01:24:58;;;;;;;7.18;5.20;;;;;;;26.89;71.43;99670.28;5127477;28;20027;-64
2023/07/22 01:27:24;;;;;;;7.35;4.80;;;;;;;26.97;70.90;99676.03;5118939;28;20095;-64
2023/07/22 01:29:53;;;;;;;10.77;5.43;;;;;;;26.94;71.14;99673.00;5122806;28;20039;-64
2023/07/22 01:32:19;;;;;;;5.78;5.13;;;;;;;26.89;71.23;99670.28;5120730;28;20225;-64
2023/07/22 01:34:45;;;;;;;7.60;4.80;;;;;;;26.97;71.17;99684.19;5125869;28;20035;-64
2023/07/22 01:37:11;;;;;;;7.72;5.03;;;;;;;27.07;70.49;99679.88;5121268;28;20038;-64
2023/07/22 01:39:36;;;;;;;8.38;5.30;;;;;;;27.11;70.14;99676.31;5121000;28;20123;-64
2023/07/22 01:42:02;;;;;;;8.90;5.25;;;;;;;27.07;70.20;99682.59;5120483;28;20024;-64
2023/07/22 01:44:28;;;;;;;7.70;5.00;;;;;;;27.00;70.55;99682.81;5124154;27;20349;-64
2023/07/22 01:46:54;;;;;;;8.05;5.05;;;;;;;27.08;70.16;99693.19;5123814;28;20054;-64
2023/07/22 01:49:19;;;;;;;8.45;4.95;;;;;;;27.09;69.27;99689.38;5120739;28;20039;-64
2023/07/22 01:51:45;;;;;;;5.03;4.28;;;;;;;27.10;69.81;99687.47;5123139;28;20031;-64
2023/07/22 01:54:11;;;;;;;5.70;4.68;;;;;;;27.15;69.86;99682.84;5124107;27;20028;-64
2023/07/22 01:56:37;;;;;;;6.15;4.97;;;;;;;27.15;69.66;99685.56;5126235;27;20023;-64
2023/07/22 01:59:02;;;;;;;6.53;5.28;;;;;;;27.17;69.88;99688.00;5126048;27;20044;-64
2023/07/22 02:01:28;;;;;;;9.90;5.30;;;;;;;27.20;69.12;99688.28;5126821;27;20272;-64
2023/07/22 02:03:54;;;;;;;5.82;4.75;;;;;;;27.18;69.19;99684.22;5123548;27;20042;-64
2023/07/22 02:06:20;;;;;;;6.97;4.50;;;;;;;27.14;68.85;99675.78;5125618;27;20042;-64
2023/07/22 02:08:45;;;;;;;7.43;5.30;;;;;;;27.07;69.36;99680.69;5128268;27;20043;-64
2023/07/22 02:11:11;;;;;;;8.93;5.70;;;;;;;27.02;70.11;99675.22;5125447;27;20045;-64
2023/07/22 02:13:37;;;;;;;7.50;4.82;;;;;;;27.00;69.31;99685.53;5124121;27;20374;-64
2023/07/22 02:16:03;;;;;;;6.63;4.97;;;;;;;27.01;69.97;99692.59;5124829;27;20330;-64
2023/07/22 02:18:29;;;;;;;8.77;5.68;;;;;;;26.99;70.26;99683.91;5123853;27;20040;-64
2023/07/22 02:20:56;;;;;;;10.75;5.20;;;;;;;26.97;70.58;99689.63;5123605;27;20342;-64
2023/07/22 02:23:22;;;;;;;8.07;5.45;;;;;;;26.95;70.90;99697.19;5127225;27;20039;-64
2023/07/22 02:25:54;;;;;;;5.75;5.10;;;;;;;26.93;70.96;99709.41;5125710;27;20039;-64
2023/07/22 02:28:21;;;;;;;9.68;5.50;;;;;;;26.93;70.92;99702.06;5125899;27;20260;-64
2023/07/22 02:30:47;;;;;;;8.60;5.35;;;;;;;26.96;70.51;99706.16;5123586;27;20043;-64
2023/07/22 02:33:13;;;;;;;8.73;5.50;;;;;;;27.00;70.07;99707.28;5122647;27;20039;-64
2023/07/22 02:35:41;;;;;;;7.85;5.70;;;;;;;26.91;70.58;99706.16;5127568;27;20096;-64
2023/07/22 02:38:07;;;;;;;7.32;5.40;;;;;;;26.84;71.14;99713.75;5125053;27;20106;-64
2023/07/22 02:40:35;;;;;;;6.65;5.32;;;;;;;26.77;70.48;99708.56;5123355;27;20035;-64
2023/07/22 02:43:00;;;;;;;6.18;5.57;;;;;;;26.72;70.83;99712.09;5123829;27;20047;-64
2023/07/22 02:45:25;;;;;;;6.15;5.55;;;;;;;26.81;70.92;99708.84;5123427;27;20347;-64
2023/07/22 02:47:51;;;;;;;6.85;5.50;;;;;;;26.64;71.78;99695.50;5126071;27;20042;-64
2023/07/22 02:50:16;;;;;;;10.70;5.35;;;;;;;26.60;71.55;99692.53;5107267;27;20049;-64
2023/07/22 02:52:42;;;;;;;15.07;6.82;;;;;;;26.62;71.58;99697.69;5123553;27;20057;-64
2023/07/22 02:55:10;;;;;;;8.18;5.78;;;;;;;26.62;71.34;99697.69;5126806;27;20339;-64
2023/07/22 02:57:37;;;;;;;8.82;5.90;;;;;;;26.55;72.03;99699.84;5125437;27;20072;-64
2023/07/22 03:00:13;;;;;;;7.78;5.93;;;;;;;26.56;71.57;99691.44;5123395;27;20032;-64
2023/07/22 03:02:41;;;;;;;9.18;5.72;;;;;;;26.59;71.21;99687.34;5129233;27;20057;-64
2023/07/22 03:05:08;;;;;;;5.93;5.32;;;;;;;26.60;71.32;99697.97;5122422;27;20314;-64
2023/07/22 03:07:38;;;;;;;8.13;6.40;;;;;;;26.56;72.06;99691.44;5127505;27;20356;-64
2023/07/22 03:10:05;;;;;;;11.30;5.88;;;;;;;26.55;71.57;99692.50;5126515;27;20036;-64
2023/07/22 03:12:30;;;;;;;7.53;6.10;;;;;;;26.62;71.69;99705.84;5124381;27;20070;-64
2023/07/22 03:14:55;;;;;;;8.63;5.85;;;;;;;26.64;71.63;99701.75;5123173;27;20036;-64
2023/07/22 03:17:21;;;;;;;7.85;6.15;;;;;;;26.62;71.83;99700.41;5124505;27;20031;-64
2023/07/22 03:19:46;;;;;;;14.27;6.65;;;;;;;26.60;71.58;99689.81;5123481;27;20027;-64
2023/07/22 03:22:18;;;;;;;35.83;8.55;;;;;;;26.63;70.89;99685.75;5124447;27;20027;-65
2023/07/22 03:24:45;;;;;;;18.73;6.18;;;;;;;26.61;71.37;99690.63;5122857;27;20199;-64
2023/07/22 03:27:11;;;;;;;7.82;5.38;;;;;;;26.57;71.12;99692.25;5122312;27;20047;-64
2023/07/22 03:29:37;;;;;;;8.02;6.03;;;;;;;26.53;71.40;99697.41;5122084;27;20040;-64
2023/07/22 03:32:03;;;;;;;8.98;5.55;;;;;;;26.54;72.23;99698.22;5123438;27;20103;-64
2023/07/22 03:34:30;;;;;;;8.20;5.47;;;;;;;26.51;71.77;99691.41;5123407;27;20272;-64
2023/07/22 03:36:55;;;;;;;8.48;5.47;;;;;;;26.59;71.72;99703.66;5120337;27;20134;-64
2023/07/22 03:39:21;;;;;;;7.25;5.55;;;;;;;26.60;71.42;99708.00;5122070;27;20353;-64
2023/07/22 03:41:47;;;;;;;10.20;5.72;;;;;;;26.56;71.92;99709.63;5127322;27;20054;-64
2023/07/22 03:44:12;;;;;;;8.50;5.78;;;;;;;26.58;71.83;99708.28;5125858;27;20038;-64
2023/07/22 03:46:38;;;;;;;8.57;5.60;;;;;;;26.67;71.56;99705.84;5121243;27;20031;-64
2023/07/22 03:49:04;;;;;;;10.30;6.03;;;;;;;26.66;72.14;99707.75;5120471;27;20042;-64
2023/07/22 03:51:30;;;;;;;7.70;5.72;;;;;;;26.61;71.69;99705.03;5123145;27;20035;-64
2023/07/22 03:53:56;;;;;;;9.02;6.93;;;;;;;26.63;72.51;99705.56;5122193;27;20211;-64
2023/07/22 03:56:23;;;;;;;8.60;6.20;;;;;;;26.71;71.92;99710.47;5125528;27;20385;-64
2023/07/22 03:58:49;;;;;;;9.73;5.85;;;;;;;26.80;71.84;99723.53;5125295;27;20032;-64
2023/07/22 04:01:14;;;;;;;8.77;5.97;;;;;;;26.86;71.75;99722.44;5123693;27;20073;-64
2023/07/22 04:03:39;;;;;;;10.57;6.20;;;;;;;26.93;71.33;99721.09;5121690;27;20039;-64
2023/07/22 04:06:05;;;;;;;12.23;6.25;;;;;;;26.99;71.75;99717.34;5127718;27;20349;-64
2023/07/22 04:08:30;;;;;;;10.90;6.68;;;;;;;26.97;70.96;99714.06;5120818;27;20482;-64
2023/07/22 04:10:57;;;;;;;8.57;6.65;;;;;;;26.96;70.63;99711.59;5123081;27;20038;-64
2023/07/22 04:13:24;;;;;;;8.02;6.50;;;;;;;27.00;71.00;99720.88;5124977;27;20039;-64
2023/07/22 04:15:50;;;;;;;8.32;6.50;;;;;;;27.03;70.76;99721.13;5120732;27;20046;-64
2023/07/22 04:18:17;;;;;;;10.15;6.72;;;;;;;27.04;70.79;99720.06;5124157;27;20040;-64
2023/07/22 04:20:42;;;;;;;8.52;5.72;;;;;;;27.10;71.12;99723.63;5123879;27;20336;-64
2023/07/22 04:23:08;;;;;;;9.48;6.47;;;;;;;27.18;71.35;99720.38;5120200;27;20035;-64
2023/07/22 04:25:39;;;;;;;7.93;5.95;;;;;;;27.24;70.70;99715.75;5124105;27;20080;-64
2023/07/22 04:28:04;;;;;;;9.25;7.03;;;;;;;27.32;70.00;99720.63;5123637;27;20035;-64
2023/07/22 04:30:29;;;;;;;7.80;6.63;;;;;;;27.26;70.23;99721.72;5122769;27;20332;-65
2023/07/22 04:32:55;;;;;;;9.18;7.05;;;;;;;27.25;70.78;99715.47;5122150;27;20035;-65
2023/07/22 04:35:21;;;;;;;8.50;6.30;;;;;;;27.38;71.57;99724.97;5122353;27;20047;-64
2023/07/22 04:37:47;;;;;;;7.22;6.22;;;;;;;27.57;70.34;99726.03;5124000;27;20100;-64
2023/07/22 04:40:16;;;;;;;11.73;5.97;;;;;;;27.75;69.01;99730.13;5122335;27;20046;-64
2023/07/22 04:42:42;;;;;;;10.52;6.30;;;;;;;27.88;68.67;99736.91;5121393;27;20250;-64
2023/07/22 04:45:12;;;;;;;6.72;5.93;;;;;;;28.00;68.10;99729.25;5123926;27;20059;-65
2023/07/22 04:47:41;;;;;;;8.88;6.65;;;;;;;28.06;68.30;99730.84;5122243;27;20028;-64
2023/07/22 04:50:11;;;;;;;7.78;6.18;;;;;;;28.28;67.38;99734.09;5120932;27;20024;-64
2023/07/22 04:52:37;;;;;;;8.05;5.95;;;;;;;28.45;66.40;99716.59;5123388;27;20349;-64
2023/07/22 04:55:08;;;;;;;9.88;6.35;;;;;;;28.52;65.63;99731.53;5123220;27;20040;-64
2023/07/22 04:57:35;;;;;;;9.55;6.10;;;;;;;28.59;65.49;99733.97;5121444;27;20036;-64
2023/07/22 05:00:03;;;;;;;11.32;6.65;;;;;;;28.78;65.08;99732.22;5124739;27;20049;-64
2023/07/22 05:02:30;;;;;;;8.85;6.60;;;;;;;29.00;64.15;99722.81;5125148;27;20325;-64
2023/07/22 05:04:55;;;;;;;7.00;6.10;;;;;;;29.21;62.90;99729.78;5124061;27;20031;-61
2023/07/22 05:07:21;;;;;;;7.30;5.70;;;;;;;29.42;61.97;99725.78;5122210;27;20031;-64
2023/07/22 05:09:47;;;;;;;7.38;5.95;;;;;;;29.57;60.57;99722.13;5120038;27;20031;-61
2023/07/22 05:12:12;;;;;;;10.35;6.20;;;;;;;29.71;59.98;99723.06;5122062;27;20099;-64
2023/07/22 05:14:37;;;;;;;7.18;5.88;;;;;;;29.87;60.05;99723.72;5121230;27;20043;-61
2023/07/22 05:17:03;;;;;;;7.75;6.03;;;;;;;29.90;59.50;99720.41;5124543;28;20087;-64
2023/07/22 05:19:29;;;;;;;9.98;6.38;;;;;;;29.62;60.25;99724.00;5123405;28;20032;-62
2023/07/22 05:21:54;;;;;;;7.85;7.05;;;;;;;29.47;60.52;99728.50;5122878;28;20028;-64
2023/07/22 05:24:21;;;;;;;8.52;6.85;;;;;;;29.58;60.26;99726.47;5120998;28;20047;-64
2023/07/22 05:26:46;;;;;;;9.60;7.57;;;;;;;29.70;59.57;99726.09;5121769;28;20054;-64
2023/07/22 05:29:12;;;;;;;7.63;6.28;;;;;;;29.53;60.47;99735.53;5122577;27;20032;-64
2023/07/22 05:31:37;;;;;;;8.98;6.68;;;;;;;29.57;60.22;99733.03;5125936;27;20035;-64
2023/07/22 05:34:03;;;;;;;8.18;6.32;;;;;;;29.32;60.91;99730.50;5123052;27;20040;-64
2023/07/22 05:36:29;;;;;;;7.85;6.28;;;;;;;29.53;61.15;99735.53;5125996;27;20034;-64
2023/07/22 05:38:55;;;;;;;7.03;6.22;;;;;;;29.80;59.91;99726.78;5127102;27;20080;-64
2023/07/22 05:41:20;;;;;;;8.80;5.90;;;;;;;29.98;59.14;99738.88;5128377;27;20031;-62
2023/07/22 05:43:46;;;;;;;8.70;6.25;;;;;;;30.27;58.16;99741.63;5125028;27;20217;-62
2023/07/22 05:46:11;;;;;;;8.20;6.07;;;;;;;30.43;57.49;99728.56;5123919;27;20023;-62
2023/07/22 05:48:37;;;;;;;10.60;6.93;;;;;;;30.46;57.66;99733.44;5127745;27;20037;-62
2023/07/22 05:51:02;;;;;;;7.78;6.35;;;;;;;30.63;56.80;99735.72;5124697;27;20035;-61
2023/07/22 05:53:28;;;;;;;8.35;6.15;;;;;;;30.83;56.02;99729.94;5125610;27;20052;-62
2023/07/22 05:55:53;;;;;;;7.97;6.50;;;;;;;31.08;55.34;99737.75;5124728;27;20027;-62
2023/07/22 05:58:18;;;;;;;8.30;6.40;;;;;;;31.30;54.69;99737.19;5127850;27;20044;-62
2023/07/22 06:00:45;;;;;;;9.63;6.85;;;;;;;31.34;52.91;99732.75;5127431;27;20068;-62
2023/07/22 06:03:10;;;;;;;7.00;5.85;;;;;;;31.15;52.27;99717.47;5125237;27;20027;-62
2023/07/22 06:05:36;;;;;;;8.75;6.22;;;;;;;31.36;51.71;99721.50;5127420;27;20038;-62
2023/07/22 06:08:01;;;;;;;7.13;6.32;;;;;;;31.49;53.18;99722.66;5123941;27;20215;-62
2023/07/22 06:10:27;;;;;;;8.40;6.05;;;;;;;31.29;52.06;99715.59;5127979;27;20035;-62
2023/07/22 06:12:52;;;;;;;8.30;6.25;;;;;;;31.38;52.55;99719.28;5123449;27;20047;-62
2023/07/22 06:15:18;;;;;;;8.98;7.28;;;;;;;31.46;52.14;99717.78;5126435;27;20362;-62
2023/07/22 06:17:43;;;;;;;8.82;6.97;;;;;;;31.29;52.46;99715.59;5126692;27;20050;-62
2023/07/22 06:20:09;;;;;;;7.57;6.15;;;;;;;31.30;53.05;99714.50;5126101;27;20317;-62
2023/07/22 06:22:35;;;;;;;7.70;5.75;;;;;;;31.50;52.60;99725.09;5123013;27;20130;-62
2023/07/22 06:25:00;;;;;;;6.80;6.18;;;;;;;31.65;52.08;99716.59;5125561;27;20035;-62
2023/07/22 06:27:26;;;;;;;9.23;6.65;;;;;;;31.36;53.31;99722.31;5124130;27;20040;-62
2023/07/22 06:29:51;;;;;;;10.15;6.32;;;;;;;30.90;55.17;99724.91;5123597;27;20035;-62
2023/07/22 06:32:18;;;;;;;7.85;6.70;;;;;;;30.84;54.14;99730.75;5126145;27;20043;-62
2023/07/22 06:34:44;;;;;;;10.07;6.85;;;;;;;31.00;54.37;99715.75;5125426;27;20031;-62
2023/07/22 06:37:09;;;;;;;9.25;6.30;;;;;;;31.37;52.09;99717.66;5124256;27;20072;-62
2023/07/22 06:39:35;;;;;;;10.52;6.32;;;;;;;31.68;51.75;99717.91;5126916;27;20258;-62
2023/07/22 06:42:00;;;;;;;8.10;6.05;;;;;;;32.00;50.45;99706.91;5138546;27;20027;-63
2023/07/22 06:44:25;;;;;;;11.90;7.32;;;;;;;32.30;49.71;99710.19;5133190;27;20058;-62
2023/07/22 06:46:51;;;;;;;9.70;6.35;;;;;;;32.47;51.10;99709.56;5136916;27;20050;-62
2023/07/22 06:49:17;;;;;;;9.85;6.65;;;;;;;32.64;48.85;99716.00;5141404;27;20226;-62
2023/07/22 06:51:42;;;;;;;9.40;7.00;;;;;;;32.69;48.43;99715.09;5141109;27;20034;-62
2023/07/22 06:54:07;;;;;;;9.52;6.90;;;;;;;32.89;48.37;99714.66;5141951;27;20047;-62
2023/07/22 06:56:33;;;;;;;9.10;6.50;;;;;;;32.92;48.18;99719.50;5141635;27;20056;-63
2023/07/22 06:58:58;;;;;;;9.63;6.40;;;;;;;33.13;47.40;99721.75;5141286;27;20045;-63
2023/07/22 07:01:24;;;;;;;10.23;6.80;;;;;;;33.30;45.78;99730.16;5141513;27;20035;-63
2023/07/22 07:03:50;;;;;;;8.65;6.40;;;;;;;33.51;45.29;99727.72;5141082;27;20136;-63
2023/07/22 07:06:16;;;;;;;8.40;6.47;;;;;;;33.64;44.94;99724.06;5134003;27;20252;-63
2023/07/22 07:08:41;;;;;;;8.82;7.07;;;;;;;33.49;45.16;99722.53;5140924;27;20047;-63
2023/07/22 07:11:06;;;;;;;7.32;6.43;;;;;;;33.31;45.44;99721.63;5141053;27;20292;-63
2023/07/22 07:13:32;;;;;;;8.20;6.60;;;;;;;33.43;44.91;99723.78;5140497;27;20351;-62
2023/07/22 07:16:35;;;;;;;10.25;6.57;;;;;;;33.59;44.95;99715.97;5140053;27;20035;-63
2023/07/22 07:19:01;;;;;;;7.65;5.45;;;;;;;33.83;43.74;99712.88;5140600;27;20393;-62
2023/07/22 07:21:27;;;;;;;9.30;6.50;;;;;;;33.77;44.55;99697.63;5140235;27;20043;-63
2023/07/22 07:23:53;;;;;;;9.20;6.57;;;;;;;33.71;43.91;99677.75;5140926;27;20300;-63
2023/07/22 07:26:19;;;;;;;8.65;6.43;;;;;;;33.99;44.56;99699.53;5104255;27;20070;-63
2023/07/22 07:28:46;;;;;;;9.55;6.38;;;;;;;33.65;44.22;99706.47;5139580;27;20057;-63
2023/07/22 07:31:12;;;;;;;7.53;6.47;;;;;;;33.27;45.44;99695.88;5139583;27;20329;-63
2023/07/22 07:33:37;;;;;;;10.70;7.50;;;;;;;32.48;48.88;99705.69;5140428;27;20038;-62
2023/07/22 07:36:03;;;;;;;9.30;6.63;;;;;;;32.83;46.04;99710.41;5139594;27;20042;-63
2023/07/22 07:38:29;;;;;;;7.00;6.20;;;;;;;32.91;46.92;99712.41;5135622;27;20066;-62
2023/07/22 07:40:59;;;;;;;9.38;6.32;;;;;;;33.45;46.15;99709.75;5133730;27;20035;-63
2023/07/22 07:43:26;;;;;;;7.50;6.18;;;;;;;33.65;45.73;99700.97;5132220;27;20077;-63
2023/07/22 07:46:21;;;;;;;7.97;6.65;;;;;;;34.02;44.19;99707.94;5125207;27;20309;-63
2023/07/22 07:48:52;;;;;;;9.63;6.78;;;;;;;34.22;43.74;99712.03;5123003;27;20027;-63
2023/07/22 07:51:18;;;;;;;8.57;7.20;;;;;;;34.09;43.68;99704.72;5124931;27;20225;-63
2023/07/22 07:53:46;;;;;;;7.38;6.45;;;;;;;33.92;44.84;99714.53;5123417;27;20046;-63
2023/07/22 07:56:12;;;;;;;9.18;7.35;;;;;;;33.27;45.81;99717.81;5125330;27;20031;-62
2023/07/22 07:58:38;;;;;;;8.90;7.00;;;;;;;32.96;46.90;99711.47;5125567;27;20084;-63
2023/07/22 08:01:04;;;;;;;8.30;7.05;;;;;;;32.85;47.12;99724.63;5122424;27;20325;-62
2023/07/22 08:03:30;;;;;;;7.30;6.43;;;;;;;33.36;46.14;99711.63;5121256;27;20417;-63
2023/07/22 08:05:56;;;;;;;9.48;6.53;;;;;;;33.79;45.38;99711.84;5121661;27;20073;-63
2023/07/22 08:08:22;;;;;;;7.93;6.50;;;;;;;33.93;44.57;99712.59;5123055;27;20043;-62
2023/07/22 08:10:48;;;;;;;10.15;6.75;;;;;;;33.94;44.28;99719.72;5125899;27;20046;-62
2023/07/22 08:13:14;;;;;;;10.50;7.20;;;;;;;33.81;44.18;99715.94;5124712;27;20039;-63
2023/07/22 08:15:39;;;;;;;8.70;6.85;;;;;;;34.11;43.54;99719.75;5123095;27;20027;-63
2023/07/22 08:18:05;;;;;;;9.68;6.68;;;;;;;34.26;43.25;99707.50;5124726;27;20813;-63
2023/07/22 08:20:30;;;;;;;9.18;7.00;;;;;;;34.50;42.69;99705.19;5120571;27;20031;-63
2023/07/22 08:22:56;;;;;;;8.07;6.65;;;;;;;34.77;42.28;99697.75;5124036;27;20035;-63
2023/07/22 08:25:21;;;;;;;10.20;7.65;;;;;;;34.97;41.33;99702.63;5122788;27;20092;-63
2023/07/22 08:27:47;;;;;;;9.85;6.07;;;;;;;35.05;41.50;99692.75;5119586;27;20352;-63
2023/07/22 08:30:12;;;;;;;9.00;7.05;;;;;;;34.99;42.24;99680.31;5127200;27;20038;-63
2023/07/22 08:32:37;;;;;;;7.90;7.10;;;;;;;34.21;44.89;99682.94;5127874;27;20030;-62
2023/07/22 08:35:03;;;;;;;10.38;6.82;;;;;;;34.08;44.78;99684.69;5139370;27;20035;-62
2023/07/22 08:37:30;;;;;;;19.13;7.97;;;;;;;33.54;46.35;99681.22;5138937;27;20046;-63
2023/07/22 08:39:56;;;;;;;9.07;7.18;;;;;;;33.83;45.75;99683.47;5139176;27;20435;-62
2023/07/22 08:42:23;;;;;;;10.07;7.13;;;;;;;33.73;45.44;99677.44;5139255;27;20039;-62
2023/07/22 08:45:01;;;;;;;9.73;7.45;;;;;;;33.88;44.94;99680.59;5138589;27;20033;-62
2023/07/22 08:47:29;;;;;;;11.20;7.88;;;;;;;33.92;45.12;99667.84;5134163;27;20081;-62
2023/07/22 08:50:00;;;;;;;11.02;7.90;;;;;;;33.87;44.07;99675.41;5138661;27;20027;-62
2023/07/22 08:52:26;;;;;;;9.00;7.45;;;;;;;34.15;43.67;99673.22;5137860;27;20038;-62
2023/07/22 08:54:53;;;;;;;10.45;6.75;;;;;;;34.27;44.47;99673.41;5138269;27;20027;-62
2023/07/22 08:57:19;;;;;;;8.50;6.90;;;;;;;34.42;44.01;99669.44;5137840;27;20398;-62
2023/07/22 08:59:45;;;;;;;11.85;7.38;;;;;;;34.66;43.20;99677.22;5132263;27;20034;-63
2023/07/22 09:02:13;;;;;;;9.85;7.65;;;;;;;34.89;42.43;99678.69;5138576;27;20031;-63
2023/07/22 09:04:40;;;;;;;8.98;8.07;;;;;;;35.01;42.22;99667.84;5138999;27;20094;-63
2023/07/22 09:07:06;;;;;;;11.25;7.40;;;;;;;35.19;40.49;99668.59;5134385;27;20034;-63
2023/07/22 09:09:32;;;;;;;12.00;7.70;;;;;;;35.12;40.63;99666.34;5138381;27;20329;-63
2023/07/22 09:11:59;;;;;;;9.10;7.85;;;;;;;35.10;41.36;99660.38;5136865;27;20043;-63
2023/07/22 09:14:26;;;;;;;10.10;7.25;;;;;;;35.23;40.66;99666.81;5137830;27;20309;-63
2023/07/22 09:16:51;;;;;;;9.13;7.90;;;;;;;35.11;41.62;99662.00;5138448;27;20046;-63
2023/07/22 09:19:17;;;;;;;11.75;7.38;;;;;;;35.17;40.44;99666.19;5139125;27;20054;-63
2023/07/22 09:21:42;;;;;;;11.38;7.38;;;;;;;34.99;40.73;99656.34;5138864;28;20061;-63
2023/07/22 09:24:29;;;;;;;10.43;7.60;;;;;;;34.99;40.55;99656.34;5138806;27;20046;-63
2023/07/22 09:26:54;;;;;;;12.13;8.00;;;;;;;34.89;40.72;99646.50;5137593;28;20047;-63
2023/07/22 09:29:48;;;;;;;10.43;7.25;;;;;;;34.79;42.03;99638.53;5138136;27;20209;-62
2023/07/22 09:32:14;;;;;;;10.32;7.72;;;;;;;34.50;42.77;99649.41;5135109;27;20114;-62
2023/07/22 09:34:54;;;;;;;8.48;7.50;;;;;;;34.41;43.28;99643.88;5137993;27;20072;-62
2023/07/22 09:37:19;;;;;;;9.07;7.65;;;;;;;34.51;42.74;99640.81;5137299;27;20043;-62
2023/07/22 09:39:47;;;;;;;10.45;7.38;;;;;;;34.50;43.53;99630.97;5135687;27;20037;-62
2023/07/22 09:42:24;;;;;;;9.20;7.53;;;;;;;34.27;44.48;99627.50;5135968;27;20335;-62
2023/07/22 09:44:55;;;;;;;10.38;7.53;;;;;;;33.92;45.42;99628.56;5136525;27;20277;-62
2023/07/22 09:47:20;;;;;;;10.40;7.85;;;;;;;33.89;46.94;99620.97;5132881;27;20372;-62
2023/07/22 09:49:46;;;;;;;11.00;7.97;;;;;;;33.58;49.22;99621.00;5135810;27;20031;-62
2023/07/22 09:52:14;;;;;;;11.38;7.60;;;;;;;33.79;47.13;99613.81;5135228;27;20053;-62
2023/07/22 09:54:48;;;;;;;11.70;8.50;;;;;;;33.47;47.00;99611.44;5137202;27;20039;-62
2023/07/22 09:57:13;;;;;;;10.95;7.32;;;;;;;33.60;45.91;99605.84;5135965;27;20098;-62
2023/07/22 09:59:39;;;;;;;10.40;7.90;;;;;;;33.83;46.72;99605.75;5134364;27;20027;-62
2023/07/22 10:02:05;;;;;;;8.38;7.28;;;;;;;33.97;46.42;99600.13;5135650;27;20034;-62
2023/07/22 10:04:34;;;;;;;8.02;7.15;;;;;;;33.74;46.32;99599.41;5136926;27;20328;-62
2023/07/22 10:07:00;;;;;;;9.38;7.25;;;;;;;33.41;46.50;99577.84;5136335;27;20063;-62
2023/07/22 10:09:28;;;;;;;9.77;7.85;;;;;;;33.31;49.18;99583.59;5136759;27;20269;-62
2023/07/22 10:11:53;;;;;;;12.18;7.43;;;;;;;33.22;47.40;99582.69;5136736;27;20066;-62
2023/07/22 10:14:19;;;;;;;8.95;7.80;;;;;;;33.30;47.86;99581.97;5134244;27;20031;-62
2023/07/22 10:16:45;;;;;;;9.73;7.70;;;;;;;33.02;47.85;99573.06;5140397;27;20039;-62
2023/07/22 10:19:11;;;;;;;11.43;8.43;;;;;;;33.27;49.03;99574.31;5140189;27;20030;-62
2023/07/22 10:21:38;;;;;;;11.85;7.65;;;;;;;33.28;48.16;99573.19;5135659;27;20356;-62
2023/07/22 10:24:05;;;;;;;12.20;7.53;;;;;;;33.34;47.10;99568.44;5132142;27;20342;-62
2023/07/22 10:26:31;;;;;;;9.40;7.10;;;;;;;33.35;45.59;99573.59;5130711;27;20318;-62
2023/07/22 10:28:58;;;;;;;8.75;7.43;;;;;;;33.46;44.80;99563.16;5131980;27;20034;-62
2023/07/22 10:31:23;;;;;;;10.07;8.88;;;;;;;33.58;46.05;99566.09;5133355;27;20043;-62
2023/07/22 10:33:49;;;;;;;9.32;7.00;;;;;;;33.74;44.81;99571.94;5132407;27;20218;-62
2023/07/22 10:36:16;;;;;;;9.50;6.90;;;;;;;33.81;45.46;99564.06;5130410;27;20151;-62
2023/07/22 10:38:42;;;;;;;9.27;7.57;;;;;;;33.78;44.92;99559.19;5132512;27;20127;-62
2023/07/22 10:41:13;;;;;;;9.52;7.53;;;;;;;33.98;44.81;99566.03;5132270;27;20035;-62
2023/07/22 10:43:39;;;;;;;10.13;7.53;;;;;;;33.99;46.63;99554.72;5132945;27;20022;-62
2023/07/22 10:46:14;;;;;;;9.40;7.10;;;;;;;33.71;46.26;99550.63;5133429;27;20264;-62
2023/07/22 10:48:41;;;;;;;9.05;7.28;;;;;;;33.57;44.97;99543.31;5133553;27;20035;-62
2023/07/22 10:51:14;;;;;;;10.32;7.30;;;;;;;33.65;44.76;99549.97;5134574;27;20077;-62
2023/07/22 10:53:43;;;;;;;12.70;7.85;;;;;;;33.80;43.78;99543.22;5132495;27;20031;-62
2023/07/22 10:56:27;;;;;;;10.48;9.07;;;;;;;33.80;45.33;99540.47;5132414;27;20035;-62
2023/07/22 10:58:53;;;;;;;10.43;8.63;;;;;;;33.64;44.18;99540.91;5134639;27;20062;-62
2023/07/22 11:01:30;;;;;;;10.75;7.75;;;;;;;33.72;42.72;99536.56;5134285;27;20435;-62
2023/07/22 11:04:30;;;;;;;11.30;8.25;;;;;;;33.70;43.91;99535.28;5132671;27;20039;-62
2023/07/22 11:07:04;;;;;;;8.80;7.90;;;;;;;33.78;43.83;99527.06;5133554;27;20042;-62
2023/07/22 11:09:30;;;;;;;12.68;8.57;;;;;;;33.88;43.98;99535.00;5130734;27;20055;-62
2023/07/22 11:11:58;;;;;;;10.23;7.50;;;;;;;33.98;43.60;99536.63;5133164;27;20296;-63
2023/07/22 11:14:25;;;;;;;11.90;8.25;;;;;;;33.98;43.09;99522.91;5133181;27;20031;-62
2023/07/22 11:16:51;;;;;;;12.77;7.72;;;;;;;34.11;43.73;99510.13;5133290;27;20317;-62
2023/07/22 11:19:18;;;;;;;12.15;7.45;;;;;;;34.27;43.06;99514.81;5134317;27;20038;-63
2023/07/22 11:21:45;;;;;;;11.32;8.07;;;;;;;34.35;42.87;99515.19;5132399;27;20034;-62
2023/07/22 11:24:11;;;;;;;9.93;7.22;;;;;;;34.46;41.83;99503.53;5133273;27;20325;-63
2023/07/22 11:26:37;;;;;;;10.70;7.70;;;;;;;34.63;41.23;99507.38;5132697;27;20076;-63
2023/07/22 11:29:04;;;;;;;9.35;7.70;;;;;;;34.73;41.16;99501.53;5132638;27;20038;-62
2023/07/22 11:31:45;;;;;;;8.85;7.55;;;;;;;34.81;40.68;99500.69;5133116;27;20338;-62